createdAt,value
2023-01-29T00:00:48.529Z,96.10
2023-01-29T00:01:48.583Z,96.83
2023-01-29T00:02:48.579Z,97.47
2023-01-29T00:03:48.529Z,98.52
2023-01-29T00:04:48.484Z,97.93
2023-01-29T00:05:48.478Z,97.36
2023-01-29T00:06:48.465Z,95.57
2023-01-29T00:07:48.460Z,95.78
2023-01-29T00:08:48.459Z,97.15
2023-01-29T00:09:48.455Z,98.20
2023-01-29T00:10:48.426Z,96.41
2023-01-29T00:11:48.422Z,94.52
2023-01-29T00:12:48.408Z,93.99
2023-01-29T00:13:48.416Z,94.21
2023-01-29T00:14:48.385Z,95.99
2023-01-29T00:15:48.380Z,96.94
2023-01-29T00:16:48.405Z,97.57
2023-01-29T00:17:48.386Z,97.57
2023-01-29T00:18:48.370Z,95.89
2023-01-29T00:19:48.339Z,95.99
2023-01-29T00:20:48.335Z,96.83
2023-01-29T00:21:48.326Z,97.47
2023-01-29T00:22:48.327Z,96.73
2023-01-29T00:23:48.318Z,95.99
2023-01-29T00:24:48.287Z,95.78
2023-01-29T00:25:48.281Z,96.51
2023-01-29T00:26:48.267Z,96.69
2023-01-29T00:27:48.261Z,94.17
2023-01-29T00:28:48.262Z,93.22
2023-01-29T00:29:48.241Z,94.48
2023-01-29T00:30:48.223Z,94.27
2023-01-29T00:31:48.290Z,93.01
2023-01-29T00:32:48.210Z,92.80
2023-01-29T00:33:48.213Z,94.37
2023-01-29T00:34:48.189Z,93.22
2023-01-29T00:35:48.185Z,94.37
2023-01-29T00:36:48.167Z,93.63
2023-01-29T00:37:48.157Z,93.74
2023-01-29T00:38:48.156Z,92.96
2023-01-29T00:39:48.533Z,91.85
2023-01-29T00:40:48.127Z,92.33
2023-01-29T00:41:48.114Z,93.80
2023-01-29T00:42:48.098Z,93.85
2023-01-29T00:43:48.119Z,95.64
2023-01-29T00:44:48.083Z,95.53
2023-01-29T00:45:48.077Z,96.05
2023-01-29T00:46:48.132Z,95.00
2023-01-29T00:47:48.057Z,95.42
2023-01-29T00:48:48.053Z,93.95
2023-01-29T00:49:48.033Z,95.32
2023-01-29T00:50:48.025Z,93.53
2023-01-29T00:51:48.009Z,93.01
2023-01-29T00:52:47.999Z,93.74
2023-01-29T00:53:48.010Z,95.00
2023-01-29T00:54:47.975Z,94.58
2023-01-29T00:55:47.976Z,95.42
2023-01-29T00:56:47.949Z,96.89
2023-01-29T00:57:47.950Z,97.11
2023-01-29T00:58:47.946Z,97.42
2023-01-29T00:59:47.951Z,96.58
2023-01-29T01:00:47.934Z,96.47
2023-01-29T01:01:47.951Z,96.89
2023-01-29T01:02:47.908Z,96.69
2023-01-29T01:03:47.888Z,96.26
2023-01-29T01:04:47.887Z,96.69
2023-01-29T01:05:47.870Z,95.00
2023-01-29T01:06:47.853Z,96.58
2023-01-29T01:07:47.853Z,95.74
2023-01-29T01:08:47.836Z,96.16
2023-01-29T01:09:47.838Z,96.37
2023-01-29T01:10:47.808Z,94.79
2023-01-29T01:11:47.801Z,94.90
2023-01-29T01:12:47.787Z,95.42
2023-01-29T01:13:47.779Z,97.11
2023-01-29T01:14:47.784Z,97.11
2023-01-29T01:15:47.772Z,96.05
2023-01-29T01:16:47.747Z,97.21
2023-01-29T01:17:47.746Z,96.05
2023-01-29T01:18:47.737Z,94.48
2023-01-29T01:19:47.742Z,92.76
2023-01-29T01:20:47.709Z,92.33
2023-01-29T01:21:47.710Z,91.91
2023-01-29T01:22:47.683Z,94.96
2023-01-29T01:23:47.685Z,95.38
2023-01-29T01:24:47.679Z,93.80
2023-01-29T01:25:47.659Z,93.70
2023-01-29T01:26:47.643Z,93.80
2023-01-29T01:27:47.651Z,94.85
2023-01-29T01:28:47.622Z,94.43
2023-01-29T01:29:47.686Z,92.44
2023-01-29T01:30:47.619Z,91.71
2023-01-29T01:31:47.650Z,92.86
2023-01-29T01:32:47.584Z,92.33
2023-01-29T01:33:47.578Z,94.01
2023-01-29T01:34:47.572Z,95.06
2023-01-29T01:35:47.560Z,95.59
2023-01-29T01:36:47.547Z,95.38
2023-01-29T01:37:47.545Z,95.48
2023-01-29T01:38:47.516Z,95.84
2023-01-29T01:39:47.522Z,95.42
2023-01-29T01:40:47.501Z,95.84
2023-01-29T01:41:47.489Z,95.84
2023-01-29T01:42:47.478Z,95.10
2023-01-29T01:43:47.467Z,95.21
2023-01-29T01:44:47.475Z,94.90
2023-01-29T01:45:47.459Z,94.69
2023-01-29T01:46:47.431Z,95.32
2023-01-29T01:47:47.429Z,94.79
2023-01-29T01:48:47.412Z,94.27
2023-01-29T01:49:47.433Z,93.95
2023-01-29T01:50:47.392Z,93.63
2023-01-29T01:51:47.385Z,94.69
2023-01-29T01:52:47.372Z,94.37
2023-01-29T01:53:47.369Z,93.85
2023-01-29T01:54:47.362Z,94.17
2023-01-29T01:55:47.344Z,93.63
2023-01-29T01:56:47.334Z,94.17
2023-01-29T01:57:47.325Z,93.85
2023-01-29T01:58:47.308Z,92.58
2023-01-29T01:59:47.320Z,92.38
2023-01-29T02:00:47.297Z,92.16
2023-01-29T02:01:47.284Z,93.43
2023-01-29T02:02:47.276Z,94.17
2023-01-29T02:03:47.264Z,93.43
2023-01-29T02:04:47.272Z,93.43
2023-01-29T02:05:47.239Z,93.63
2023-01-29T02:06:47.233Z,94.37
2023-01-29T02:07:47.219Z,93.43
2023-01-29T02:08:47.233Z,92.80
2023-01-29T02:09:47.222Z,93.22
2023-01-29T02:10:47.197Z,93.95
2023-01-29T02:11:47.180Z,93.32
2023-01-29T02:13:57.267Z,93.63
2023-01-29T02:14:58.270Z,92.80
2023-01-29T02:15:58.259Z,91.07
2023-01-29T02:16:58.241Z,92.12
2023-01-29T02:17:58.231Z,91.60
2023-01-29T02:18:58.214Z,92.65
2023-01-29T02:19:58.229Z,93.49
2023-01-29T02:20:58.203Z,92.44
2023-01-29T02:21:58.185Z,91.91
2023-01-29T02:22:58.177Z,93.18
2023-01-29T02:23:58.315Z,93.38
2023-01-29T02:24:58.169Z,93.85
2023-01-29T02:25:58.146Z,92.96
2023-01-29T02:26:58.140Z,92.33
2023-01-29T02:27:58.121Z,92.23
2023-01-29T02:28:58.115Z,91.81
2023-01-29T02:29:58.116Z,91.49
2023-01-29T02:30:58.262Z,90.86
2023-01-29T02:31:58.118Z,91.60
2023-01-29T02:32:58.071Z,91.49
2023-01-29T02:33:58.054Z,92.44
2023-01-29T02:34:58.090Z,91.39
2023-01-29T02:35:58.035Z,92.65
2023-01-29T02:36:58.031Z,92.76
2023-01-29T02:37:58.020Z,91.07
2023-01-29T02:38:58.012Z,91.18
2023-01-29T02:39:58.009Z,91.60
2023-01-29T02:40:57.993Z,91.96
2023-01-29T02:41:57.974Z,91.85
2023-01-29T02:42:57.970Z,92.69
2023-01-29T02:43:57.952Z,92.90
2023-01-29T02:44:57.968Z,93.53
2023-01-29T02:45:57.958Z,94.37
2023-01-29T02:46:57.924Z,93.22
2023-01-29T02:47:57.915Z,92.80
2023-01-29T02:48:57.935Z,93.95
2023-01-29T02:49:57.902Z,93.49
2023-01-29T02:50:57.903Z,94.23
2023-01-29T02:51:57.871Z,93.18
2023-01-29T02:52:57.866Z,92.44
2023-01-29T02:53:57.848Z,92.65
2023-01-29T02:54:57.854Z,91.07
2023-01-29T02:55:57.830Z,90.72
2023-01-29T02:56:57.822Z,91.81
2023-01-29T02:57:57.803Z,92.96
2023-01-29T02:58:57.803Z,93.59
2023-01-29T02:59:57.810Z,94.65
2023-01-29T03:00:57.806Z,93.91
2023-01-29T03:01:57.792Z,93.49
2023-01-29T03:02:57.768Z,94.23
2023-01-29T03:03:57.745Z,93.07
2023-01-29T03:04:57.755Z,92.86
2023-01-29T03:05:57.723Z,92.96
2023-01-29T03:06:57.718Z,91.91
2023-01-29T03:07:57.712Z,90.76
2023-01-29T03:08:57.705Z,90.86
2023-01-29T03:09:57.698Z,91.39
2023-01-29T03:10:57.679Z,89.07
2023-01-29T03:11:57.663Z,89.60
2023-01-29T03:12:57.657Z,91.56
2023-01-29T03:13:57.639Z,92.29
2023-01-29T03:14:57.658Z,92.02
2023-01-29T03:15:57.624Z,92.23
2023-01-29T03:16:57.616Z,92.23
2023-01-29T03:17:57.603Z,90.19
2023-01-29T03:18:57.601Z,89.56
2023-01-29T03:19:57.598Z,90.72
2023-01-29T03:20:57.576Z,91.71
2023-01-29T03:21:57.558Z,91.18
2023-01-29T03:22:57.558Z,92.02
2023-01-29T03:23:57.557Z,92.54
2023-01-29T03:24:57.543Z,92.76
2023-01-29T03:25:57.533Z,92.44
2023-01-29T03:26:57.522Z,90.76
2023-01-29T03:27:57.502Z,90.12
2023-01-29T03:28:57.493Z,91.71
2023-01-29T03:29:57.503Z,92.54
2023-01-29T03:30:57.541Z,91.71
2023-01-29T03:31:57.561Z,92.65
2023-01-29T03:32:57.448Z,92.65
2023-01-29T03:33:57.433Z,91.71
2023-01-29T03:34:57.440Z,90.86
2023-01-29T03:35:57.441Z,89.92
2023-01-29T03:36:57.411Z,90.76
2023-01-29T03:37:57.398Z,91.81
2023-01-29T03:38:57.392Z,92.58
2023-01-29T03:39:57.404Z,91.74
2023-01-29T03:40:57.367Z,91.01
2023-01-29T03:41:57.362Z,90.48
2023-01-29T03:42:57.345Z,92.27
2023-01-29T03:43:57.330Z,92.48
2023-01-29T03:44:57.339Z,90.23
2023-01-29T03:45:57.367Z,89.81
2023-01-29T03:46:57.302Z,90.55
2023-01-29T03:47:57.294Z,91.81
2023-01-29T03:48:57.282Z,92.44
2023-01-29T03:49:57.291Z,90.86
2023-01-29T03:50:57.270Z,89.29
2023-01-29T03:51:57.276Z,92.02
2023-01-29T03:52:57.238Z,92.44
2023-01-29T03:53:57.227Z,92.33
2023-01-29T03:54:57.240Z,90.76
2023-01-29T03:55:57.203Z,90.86
2023-01-29T03:56:57.202Z,91.56
2023-01-29T03:57:57.181Z,91.77
2023-01-29T03:58:57.179Z,91.45
2023-01-29T03:59:57.175Z,92.29
2023-01-29T04:00:57.154Z,92.65
2023-01-29T04:01:57.138Z,92.40
2023-01-29T04:02:57.142Z,93.13
2023-01-29T04:03:57.223Z,92.19
2023-01-29T04:04:57.130Z,92.82
2023-01-29T04:05:57.096Z,91.77
2023-01-29T04:06:57.093Z,90.51
2023-01-29T04:07:57.079Z,90.82
2023-01-29T04:08:57.078Z,91.24
2023-01-29T04:09:57.074Z,90.30
2023-01-29T04:10:57.060Z,90.82
2023-01-29T04:11:57.037Z,90.40
2023-01-29T04:12:57.054Z,90.51
2023-01-29T04:13:57.016Z,90.51
2023-01-29T04:14:57.031Z,88.93
2023-01-29T04:15:56.998Z,88.20
2023-01-29T04:16:56.992Z,89.25
2023-01-29T04:17:56.982Z,90.09
2023-01-29T04:18:56.976Z,90.51
2023-01-29T04:19:56.973Z,90.51
2023-01-29T04:20:56.955Z,89.98
2023-01-29T04:21:56.940Z,88.82
2023-01-29T04:22:56.940Z,89.35
2023-01-29T04:23:56.946Z,88.41
2023-01-29T04:24:56.927Z,88.16
2023-01-29T04:25:56.904Z,87.67
2023-01-29T04:26:56.898Z,87.42
2023-01-29T04:27:56.880Z,88.16
2023-01-29T04:28:56.876Z,87.21
2023-01-29T04:29:56.863Z,87.84
2023-01-29T04:30:56.936Z,87.52
2023-01-29T04:31:56.872Z,88.37
2023-01-29T04:32:56.835Z,87.95
2023-01-29T04:33:56.823Z,87.74
2023-01-29T04:34:56.823Z,87.21
2023-01-29T04:35:56.815Z,87.32
2023-01-29T04:36:56.795Z,86.58
2023-01-29T04:37:56.784Z,86.58
2023-01-29T04:38:56.776Z,87.95
2023-01-29T04:39:56.766Z,87.95
2023-01-29T04:40:56.772Z,87.63
2023-01-29T04:41:56.743Z,88.05
2023-01-29T04:42:56.746Z,86.69
2023-01-29T04:43:56.722Z,87.84
2023-01-29T04:44:56.723Z,89.14
2023-01-29T04:45:56.717Z,89.14
2023-01-29T04:46:56.697Z,87.67
2023-01-29T04:47:56.693Z,88.41
2023-01-29T04:48:56.679Z,87.77
2023-01-29T04:49:56.662Z,88.72
2023-01-29T04:50:56.670Z,87.88
2023-01-29T04:51:56.644Z,87.88
2023-01-29T04:52:56.641Z,88.20
2023-01-29T04:53:56.626Z,88.13
2023-01-29T04:54:56.628Z,88.55
2023-01-29T04:55:56.628Z,88.34
2023-01-29T04:56:56.602Z,88.45
2023-01-29T04:57:56.584Z,88.70
2023-01-29T04:58:56.583Z,89.54
2023-01-29T04:59:56.564Z,89.64
2023-01-29T05:00:56.584Z,90.06
2023-01-29T05:01:56.577Z,90.06
2023-01-29T05:02:56.567Z,90.27
2023-01-29T05:03:56.525Z,89.86
2023-01-29T05:04:56.520Z,90.06
2023-01-29T05:05:56.519Z,90.27
2023-01-29T05:06:56.500Z,90.80
2023-01-29T05:07:56.484Z,90.91
2023-01-29T05:08:56.492Z,91.43
2023-01-29T05:09:56.463Z,90.38
2023-01-29T05:10:56.477Z,91.01
2023-01-29T05:11:56.449Z,90.59
2023-01-29T05:12:56.441Z,90.59
2023-01-29T05:13:56.426Z,91.43
2023-01-29T05:14:56.419Z,91.85
2023-01-29T05:15:56.452Z,90.48
2023-01-29T05:16:56.414Z,91.22
2023-01-29T05:17:56.389Z,90.63
2023-01-29T05:18:56.390Z,91.01
2023-01-29T05:19:56.368Z,91.01
2023-01-29T05:20:56.404Z,91.43
2023-01-29T05:21:56.347Z,91.01
2023-01-29T05:22:56.351Z,91.22
2023-01-29T05:23:56.334Z,90.38
2023-01-29T05:24:56.359Z,91.01
2023-01-29T05:25:56.325Z,91.53
2023-01-29T05:26:56.316Z,91.43
2023-01-29T05:27:56.291Z,90.91
2023-01-29T05:28:56.396Z,91.53
2023-01-29T05:29:56.271Z,90.38
2023-01-29T05:30:56.490Z,90.69
2023-01-29T05:31:56.319Z,91.01
2023-01-29T05:32:56.271Z,91.33
2023-01-29T05:33:56.228Z,91.33
2023-01-29T05:34:56.228Z,90.80
2023-01-29T05:35:56.220Z,90.38
2023-01-29T05:36:56.217Z,91.64
2023-01-29T05:37:56.189Z,91.33
2023-01-29T05:38:56.199Z,90.91
2023-01-29T05:39:56.171Z,90.48
2023-01-29T05:40:56.198Z,90.17
2023-01-29T05:41:56.152Z,90.17
2023-01-29T05:42:56.143Z,89.29
2023-01-29T05:43:56.131Z,89.32
2023-01-29T05:44:56.166Z,88.55
2023-01-29T05:45:56.160Z,89.07
2023-01-29T05:46:56.140Z,89.81
2023-01-29T05:47:56.095Z,89.60
2023-01-29T05:48:56.089Z,89.81
2023-01-29T05:49:56.073Z,89.60
2023-01-29T05:50:56.083Z,90.23
2023-01-29T05:51:56.054Z,89.18
2023-01-29T05:52:56.045Z,89.81
2023-01-29T05:53:56.033Z,89.39
2023-01-29T05:54:56.035Z,89.81
2023-01-29T05:55:56.027Z,90.92
2023-01-29T05:56:56.008Z,89.29
2023-01-29T05:57:55.990Z,89.60
2023-01-29T05:58:55.993Z,89.81
2023-01-29T05:59:55.980Z,89.92
2023-01-29T06:00:55.980Z,89.29
2023-01-29T06:01:56.042Z,89.50
2023-01-29T06:02:56.016Z,90.02
2023-01-29T06:03:55.936Z,89.50
2023-01-29T06:04:55.929Z,89.39
2023-01-29T06:05:55.924Z,89.98
2023-01-29T06:06:55.904Z,90.09
2023-01-29T06:07:55.892Z,89.56
2023-01-29T06:08:55.888Z,89.35
2023-01-29T06:09:55.869Z,89.71
2023-01-29T06:10:55.878Z,89.35
2023-01-29T06:11:55.860Z,89.25
2023-01-29T06:12:55.846Z,88.82
2023-01-29T06:13:55.831Z,89.25
2023-01-29T06:14:55.827Z,89.50
2023-01-29T06:15:55.890Z,89.77
2023-01-29T06:16:55.803Z,89.25
2023-01-29T06:17:55.789Z,89.46
2023-01-29T06:18:55.791Z,89.46
2023-01-29T06:19:55.772Z,89.25
2023-01-29T06:20:55.789Z,89.87
2023-01-29T06:21:55.759Z,90.30
2023-01-29T06:22:55.756Z,90.40
2023-01-29T06:23:55.769Z,90.09
2023-01-29T06:24:55.729Z,90.92
2023-01-29T06:25:55.822Z,90.61
2023-01-29T06:26:55.737Z,90.72
2023-01-29T06:27:57.778Z,90.61
2023-01-29T06:28:55.678Z,90.72
2023-01-29T06:29:55.672Z,90.30
2023-01-29T06:30:55.679Z,89.46
2023-01-29T06:31:55.765Z,89.46
2023-01-29T06:32:55.605Z,88.41
2023-01-29T06:33:55.579Z,88.82
2023-01-29T06:34:55.572Z,88.51
2023-01-29T06:35:55.573Z,89.25
2023-01-29T06:36:55.553Z,89.67
2023-01-29T06:37:55.553Z,90.19
2023-01-29T06:38:55.549Z,90.61
2023-01-29T06:39:55.518Z,90.72
2023-01-29T06:40:55.530Z,90.82
2023-01-29T06:41:55.499Z,91.45
2023-01-29T06:42:55.502Z,91.14
2023-01-29T06:43:55.490Z,92.61
2023-01-29T06:44:55.471Z,92.08
2023-01-29T06:45:55.528Z,93.34
2023-01-29T06:46:55.450Z,93.87
2023-01-29T06:47:55.443Z,94.08
2023-01-29T06:48:55.431Z,92.71
2023-01-29T06:49:55.439Z,92.82
2023-01-29T06:50:55.429Z,92.76
2023-01-29T06:51:55.424Z,92.92
2023-01-29T06:52:55.388Z,92.50
2023-01-29T06:53:55.388Z,92.92
2023-01-29T06:54:55.372Z,93.24
2023-01-29T06:55:55.381Z,93.02
2023-01-29T06:56:55.351Z,94.08
2023-01-29T06:57:55.349Z,94.71
2023-01-29T06:58:55.333Z,94.71
2023-01-29T06:59:55.336Z,94.49
2023-01-29T07:00:55.348Z,94.39
2023-01-29T07:01:55.360Z,94.29
2023-01-29T07:02:55.291Z,94.49
2023-01-29T07:03:55.296Z,94.49
2023-01-29T07:04:55.275Z,94.71
2023-01-29T07:05:55.276Z,95.02
2023-01-29T07:06:55.254Z,95.13
2023-01-29T07:07:55.248Z,94.81
2023-01-29T07:08:55.241Z,94.81
2023-01-29T07:09:55.228Z,93.97
2023-01-29T07:10:55.225Z,94.08
2023-01-29T07:11:55.207Z,94.29
2023-01-29T07:12:55.198Z,93.76
2023-01-29T07:13:55.220Z,94.08
2023-01-29T07:14:55.174Z,93.87
2023-01-29T07:15:55.272Z,94.18
2023-01-29T07:16:55.161Z,93.87
2023-01-29T07:17:55.149Z,93.13
2023-01-29T07:18:55.150Z,93.44
2023-01-29T07:19:55.143Z,93.34
2023-01-29T07:20:55.128Z,94.24
2023-01-29T07:21:55.109Z,94.04
2023-01-29T07:22:55.098Z,93.40
2023-01-29T07:23:55.103Z,93.09
2023-01-29T07:24:55.076Z,93.82
2023-01-29T07:25:55.072Z,92.67
2023-01-29T07:26:55.080Z,91.94
2023-01-29T07:27:55.052Z,92.14
2023-01-29T07:28:55.039Z,92.25
2023-01-29T07:29:55.035Z,93.19
2023-01-29T07:30:55.045Z,93.62
2023-01-29T07:31:55.184Z,92.88
2023-01-29T07:32:54.999Z,93.30
2023-01-29T07:33:54.994Z,92.14
2023-01-29T07:34:54.982Z,92.35
2023-01-29T07:35:54.975Z,92.77
2023-01-29T07:36:54.983Z,92.57
2023-01-29T07:37:55.037Z,92.14
2023-01-29T07:38:54.941Z,91.94
2023-01-29T07:39:54.942Z,92.99
2023-01-29T07:40:54.927Z,93.30
2023-01-29T07:41:54.932Z,92.35
2023-01-29T07:42:54.902Z,90.99
2023-01-29T07:43:54.898Z,91.09
2023-01-29T07:44:54.883Z,91.72
2023-01-29T07:45:54.899Z,91.52
2023-01-29T07:46:54.884Z,91.62
2023-01-29T07:47:54.867Z,91.52
2023-01-29T07:48:54.843Z,92.04
2023-01-29T07:49:54.838Z,92.63
2023-01-29T07:50:54.826Z,92.32
2023-01-29T07:51:54.834Z,90.74
2023-01-29T07:52:54.813Z,90.32
2023-01-29T07:53:54.800Z,90.53
2023-01-29T07:54:54.801Z,91.05
2023-01-29T07:55:54.778Z,91.79
2023-01-29T07:56:54.780Z,91.05
2023-01-29T07:57:54.762Z,90.42
2023-01-29T07:58:54.749Z,92.10
2023-01-29T07:59:54.744Z,91.16
2023-01-29T08:00:54.757Z,89.90
2023-01-29T08:01:54.752Z,89.59
2023-01-29T08:02:54.709Z,89.69
2023-01-29T08:03:54.704Z,89.48
2023-01-29T08:04:54.687Z,90.11
2023-01-29T08:05:54.687Z,89.69
2023-01-29T08:06:54.680Z,89.79
2023-01-29T08:08:06.124Z,89.65
2023-01-29T08:08:54.659Z,89.86
2023-01-29T08:09:54.642Z,89.37
2023-01-29T08:10:54.629Z,90.11
2023-01-29T08:11:54.637Z,90.28
2023-01-29T08:12:54.607Z,90.80
2023-01-29T08:13:54.599Z,89.44
2023-01-29T08:14:54.590Z,89.65
2023-01-29T08:15:54.585Z,89.34
2023-01-29T08:16:54.591Z,88.71
2023-01-29T08:17:58.012Z,89.37
2023-01-29T08:18:54.548Z,89.75
2023-01-29T08:19:54.541Z,89.23
2023-01-29T08:20:54.529Z,89.02
2023-01-29T08:21:54.544Z,88.81
2023-01-29T08:22:54.509Z,88.39
2023-01-29T08:23:54.584Z,88.29
2023-01-29T08:25:06.272Z,88.39
2023-01-29T08:25:54.582Z,89.50
2023-01-29T08:26:54.499Z,88.67
2023-01-29T08:27:54.466Z,88.14
2023-01-29T08:28:54.456Z,88.24
2023-01-29T08:29:54.442Z,87.30
2023-01-29T08:30:54.485Z,87.24
2023-01-29T08:31:54.468Z,87.13
2023-01-29T08:32:54.439Z,87.76
2023-01-29T08:33:54.412Z,86.82
2023-01-29T08:34:54.415Z,87.87
2023-01-29T08:35:54.403Z,89.27
2023-01-29T08:36:54.398Z,88.22
2023-01-29T08:37:54.384Z,88.01
2023-01-29T08:38:54.372Z,88.75
2023-01-29T08:39:54.354Z,88.71
2023-01-29T08:40:54.336Z,88.18
2023-01-29T08:41:54.343Z,87.97
2023-01-29T08:42:54.316Z,88.29
2023-01-29T08:43:54.342Z,88.29
2023-01-29T08:44:54.291Z,88.64
2023-01-29T08:45:54.323Z,90.38
2023-01-29T08:46:54.304Z,89.12
2023-01-29T08:47:54.293Z,89.17
2023-01-29T08:48:54.261Z,88.32
2023-01-29T08:49:54.252Z,88.85
2023-01-29T08:50:54.234Z,88.75
2023-01-29T08:51:54.242Z,88.64
2023-01-29T08:52:54.214Z,88.75
2023-01-29T08:53:54.212Z,88.54
2023-01-29T08:54:54.194Z,88.54
2023-01-29T08:55:54.197Z,89.37
2023-01-29T08:56:54.192Z,89.17
2023-01-29T08:57:54.174Z,88.75
2023-01-29T08:58:54.161Z,88.54
2023-01-29T08:59:54.148Z,90.00
2023-01-29T09:00:54.181Z,89.37
2023-01-29T09:01:54.159Z,90.11
2023-01-29T09:02:54.123Z,88.64
2023-01-29T09:03:54.109Z,88.32
2023-01-29T09:04:54.114Z,89.12
2023-01-29T09:05:54.106Z,89.54
2023-01-29T09:06:54.090Z,88.29
2023-01-29T09:07:54.364Z,88.07
2023-01-29T09:08:54.065Z,88.29
2023-01-29T09:09:54.057Z,87.97
2023-01-29T09:10:54.050Z,87.34
2023-01-29T09:11:54.043Z,87.55
2023-01-29T09:12:54.015Z,87.87
2023-01-29T09:13:54.010Z,87.55
2023-01-29T09:14:53.995Z,87.66
2023-01-29T09:15:53.990Z,88.46
2023-01-29T09:16:54.019Z,87.83
2023-01-29T09:17:54.033Z,87.09
2023-01-29T09:18:53.955Z,86.88
2023-01-29T09:19:53.949Z,85.69
2023-01-29T09:20:53.937Z,86.32
2023-01-29T09:21:53.950Z,86.28
2023-01-29T09:22:53.913Z,86.28
2023-01-29T09:23:59.923Z,84.81
2023-01-29T09:24:53.895Z,85.61
2023-01-29T09:25:53.887Z,84.15
2023-01-29T09:26:53.893Z,83.69
2023-01-29T09:27:53.902Z,83.00
2023-01-29T09:28:53.871Z,83.10
2023-01-29T09:29:53.851Z,83.90
2023-01-29T09:30:54.011Z,82.06
2023-01-29T09:31:54.004Z,84.15
2023-01-29T09:32:54.778Z,83.42
2023-01-29T09:33:53.809Z,83.31
2023-01-29T09:34:53.793Z,83.73
2023-01-29T09:35:53.802Z,83.62
2023-01-29T09:36:53.790Z,84.05
2023-01-29T09:37:53.806Z,84.15
2023-01-29T09:38:53.764Z,83.83
2023-01-29T09:39:53.754Z,84.61
2023-01-29T09:40:53.729Z,84.56
2023-01-29T09:41:53.761Z,83.45
2023-01-29T09:42:53.713Z,84.61
2023-01-29T09:43:53.704Z,84.19
2023-01-29T09:44:53.696Z,86.18
2023-01-29T09:45:53.694Z,87.01
2023-01-29T09:46:53.682Z,84.78
2023-01-29T09:47:53.664Z,83.87
2023-01-29T09:48:53.648Z,84.46
2023-01-29T09:49:53.642Z,84.25
2023-01-29T09:50:53.630Z,84.67
2023-01-29T09:51:53.644Z,84.71
2023-01-29T09:52:53.612Z,84.46
2023-01-29T09:53:53.628Z,85.41
2023-01-29T09:54:53.592Z,83.83
2023-01-29T09:55:53.584Z,84.56
2023-01-29T09:56:53.580Z,84.25
2023-01-29T09:57:53.565Z,84.25
2023-01-29T09:58:53.555Z,84.53
2023-01-29T09:59:53.541Z,84.22
2023-01-29T10:00:53.532Z,84.22
2023-01-29T10:01:53.603Z,84.22
2023-01-29T10:02:53.516Z,83.38
2023-01-29T10:03:53.515Z,83.27
2023-01-29T10:04:53.545Z,83.27
2023-01-29T10:05:53.491Z,82.96
2023-01-29T10:06:53.496Z,82.86
2023-01-29T10:07:53.488Z,83.59
2023-01-29T10:08:53.445Z,83.38
2023-01-29T10:09:53.440Z,83.80
2023-01-29T10:10:53.425Z,84.32
2023-01-29T10:11:53.436Z,85.22
2023-01-29T10:12:53.408Z,83.76
2023-01-29T10:13:53.411Z,82.89
2023-01-29T10:14:53.395Z,82.36
2023-01-29T10:15:53.382Z,82.99
2023-01-29T10:16:53.435Z,82.57
2023-01-29T10:17:53.365Z,81.95
2023-01-29T10:18:53.357Z,82.36
2023-01-29T10:19:53.368Z,82.40
2023-01-29T10:20:53.332Z,82.71
2023-01-29T10:21:53.336Z,83.51
2023-01-29T10:22:53.307Z,82.67
2023-01-29T10:23:53.325Z,82.26
2023-01-29T10:24:53.290Z,82.89
2023-01-29T10:25:53.322Z,82.46
2023-01-29T10:26:53.299Z,83.06
2023-01-29T10:27:53.305Z,82.64
2023-01-29T10:28:53.257Z,81.38
2023-01-29T10:29:53.238Z,81.13
2023-01-29T10:30:53.367Z,81.49
2023-01-29T10:31:53.368Z,81.70
2023-01-29T10:32:53.205Z,82.84
2023-01-29T10:34:08.547Z,83.37
2023-01-29T10:34:53.200Z,82.01
2023-01-29T10:35:55.308Z,81.38
2023-01-29T10:36:53.183Z,82.12
2023-01-29T10:37:53.159Z,82.74
2023-01-29T10:38:53.141Z,82.74
2023-01-29T10:39:53.135Z,81.49
2023-01-29T10:40:53.127Z,82.43
2023-01-29T10:41:54.020Z,82.64
2023-01-29T10:42:53.118Z,82.01
2023-01-29T10:43:53.099Z,82.43
2023-01-29T10:44:53.091Z,82.12
2023-01-29T10:45:53.078Z,82.84
2023-01-29T10:46:53.067Z,82.50
2023-01-29T10:47:53.156Z,81.18
2023-01-29T10:48:53.045Z,81.90
2023-01-29T10:49:53.036Z,81.45
2023-01-29T10:50:53.020Z,81.56
2023-01-29T10:51:53.018Z,82.18
2023-01-29T10:52:53.021Z,81.24
2023-01-29T10:53:53.002Z,81.56
2023-01-29T10:54:53.011Z,82.74
2023-01-29T10:55:52.976Z,81.59
2023-01-29T10:56:52.968Z,83.06
2023-01-29T10:57:52.966Z,83.16
2023-01-29T10:58:52.949Z,83.26
2023-01-29T10:59:52.938Z,82.95
2023-01-29T11:00:52.936Z,82.64
2023-01-29T11:01:52.970Z,82.84
2023-01-29T11:02:53.146Z,83.47
2023-01-29T11:03:52.887Z,83.58
2023-01-29T11:04:52.883Z,83.58
2023-01-29T11:05:52.873Z,82.53
2023-01-29T11:06:52.868Z,83.16
2023-01-29T11:07:52.861Z,83.01
2023-01-29T11:08:52.856Z,81.87
2023-01-29T11:09:52.830Z,82.91
2023-01-29T11:10:52.840Z,82.70
2023-01-29T11:11:52.837Z,83.08
2023-01-29T11:12:52.818Z,82.25
2023-01-29T11:13:52.789Z,82.35
2023-01-29T11:14:52.792Z,81.21
2023-01-29T11:15:52.778Z,81.21
2023-01-29T11:16:52.835Z,82.25
2023-01-29T11:17:52.779Z,81.21
2023-01-29T11:18:52.777Z,80.79
2023-01-29T11:19:52.761Z,80.58
2023-01-29T11:20:52.734Z,81.52
2023-01-29T11:21:52.704Z,82.29
2023-01-29T11:22:52.732Z,82.50
2023-01-29T11:23:52.687Z,82.50
2023-01-29T11:24:52.681Z,83.33
2023-01-29T11:25:52.677Z,83.33
2023-01-29T11:26:52.660Z,82.50
2023-01-29T11:27:52.661Z,82.50
2023-01-29T11:28:52.638Z,82.81
2023-01-29T11:29:52.623Z,82.25
2023-01-29T11:30:52.754Z,82.46
2023-01-29T11:31:52.659Z,83.29
2023-01-29T11:32:52.613Z,82.50
2023-01-29T11:33:52.588Z,82.87
2023-01-29T11:34:52.579Z,82.67
2023-01-29T11:35:52.644Z,82.46
2023-01-29T11:36:52.560Z,82.56
2023-01-29T11:37:52.561Z,83.08
2023-01-29T11:38:52.535Z,82.25
2023-01-29T11:39:52.521Z,82.67
2023-01-29T11:40:52.535Z,81.62
2023-01-29T11:41:52.501Z,82.04
2023-01-29T11:42:52.513Z,81.52
2023-01-29T11:43:52.479Z,81.10
2023-01-29T11:44:52.472Z,81.73
2023-01-29T11:45:52.455Z,82.14
2023-01-29T11:46:52.453Z,82.56
2023-01-29T11:47:52.459Z,82.04
2023-01-29T11:48:53.592Z,81.41
2023-01-29T11:49:52.417Z,80.96
2023-01-29T11:50:52.417Z,81.48
2023-01-29T11:51:52.397Z,81.02
2023-01-29T11:52:52.410Z,81.86
2023-01-29T11:53:52.379Z,79.53
2023-01-29T11:54:52.375Z,79.25
2023-01-29T11:55:52.352Z,80.96
2023-01-29T11:56:52.356Z,81.27
2023-01-29T11:57:52.353Z,81.38
2023-01-29T11:58:52.326Z,81.62
2023-01-29T11:59:52.316Z,82.35
2023-01-29T12:00:52.342Z,82.14
2023-01-29T12:01:52.298Z,81.62
2023-01-29T12:02:52.299Z,82.46
2023-01-29T12:03:52.347Z,82.98
2023-01-29T12:04:52.269Z,84.44
2023-01-29T12:05:52.436Z,83.81
2023-01-29T12:06:52.271Z,82.25
2023-01-29T12:07:52.244Z,82.56
2023-01-29T12:08:52.225Z,82.87
2023-01-29T12:09:52.213Z,83.40
2023-01-29T12:10:52.199Z,83.12
2023-01-29T12:11:52.187Z,83.61
2023-01-29T12:12:52.201Z,84.38
2023-01-29T12:13:52.172Z,84.79
2023-01-29T12:14:52.164Z,83.33
2023-01-29T12:15:54.727Z,84.06
2023-01-29T12:16:52.171Z,84.06
2023-01-29T12:17:52.144Z,84.17
2023-01-29T12:18:52.175Z,83.75
2023-01-29T12:19:52.118Z,84.79
2023-01-29T12:20:52.149Z,84.79
2023-01-29T12:21:52.089Z,84.48
2023-01-29T12:22:52.089Z,84.17
2023-01-29T12:23:52.064Z,84.58
2023-01-29T12:24:52.061Z,83.64
2023-01-29T12:25:52.259Z,83.54
2023-01-29T12:26:52.044Z,84.27
2023-01-29T12:27:52.042Z,84.17
2023-01-29T12:28:52.030Z,85.00
2023-01-29T12:29:52.004Z,84.48
2023-01-29T12:30:52.036Z,84.89
2023-01-29T12:31:51.987Z,84.38
2023-01-29T12:32:52.006Z,83.44
2023-01-29T12:33:52.069Z,83.64
2023-01-29T12:34:51.963Z,84.06
2023-01-29T12:35:51.956Z,84.89
2023-01-29T12:36:51.944Z,84.17
2023-01-29T12:37:51.955Z,84.27
2023-01-29T12:38:51.928Z,84.89
2023-01-29T12:39:51.951Z,85.11
2023-01-29T12:40:51.904Z,85.83
2023-01-29T12:41:51.887Z,84.79
2023-01-29T12:42:51.907Z,84.48
2023-01-29T12:43:51.866Z,85.00
2023-01-29T12:44:51.875Z,85.21
2023-01-29T12:45:51.844Z,84.69
2023-01-29T12:46:51.879Z,85.42
2023-01-29T12:47:51.843Z,85.31
2023-01-29T12:48:51.820Z,85.11
2023-01-29T12:49:51.808Z,85.42
2023-01-29T12:50:51.798Z,85.31
2023-01-29T12:51:51.793Z,84.89
2023-01-29T12:52:51.803Z,85.31
2023-01-29T12:53:51.762Z,84.69